Time;durP1;ratioP1;P1;durP2;ratioP2;P2;SDS_P1;SDS_P2;PMS_P1;PMS_P2;Temp;Humidity;BMP_temperature;BMP_pressure;BME280_temperature;BME280_humidity;BME280_pressure;Samples;Min_cycle;Max_cycle;Signal;HPM_P1;HPM_P2
2023/04/16 00:00:03;;;;;;;13.18;8.50;;;;;;;;;;4996311;28;20160;-60
2023/04/16 00:02:36;;;;;;;12.48;8.68;;;;;;;;;;4995675;28;20042;-56
2023/04/16 00:05:02;;;;;;;15.18;8.93;;;;;;;;;;4995407;28;20030;-56
2023/04/16 00:07:28;;;;;;;14.93;9.27;;;;;;;;;;4987891;28;20060;-55
2023/04/16 00:09:53;;;;;;;13.25;9.07;;;;;;;;;;4999975;28;20527;-56
2023/04/16 00:12:18;;;;;;;14.38;9.55;;;;;;;;;;4996675;28;20031;-58
2023/04/16 00:14:44;;;;;;;12.50;8.50;;;;;;;;;;4996942;28;20400;-54
2023/04/16 00:17:09;;;;;;;14.15;9.35;;;;;;;;;;4997386;28;20031;-53
2023/04/16 00:19:35;;;;;;;15.23;9.70;;;;;;;;;;4995823;28;20069;-56
2023/04/16 00:22:00;;;;;;;13.63;8.48;;;;;;;;;;4995496;28;20040;-54
2023/04/16 00:24:25;;;;;;;15.75;9.88;;;;;;;;;;4984803;28;20045;-55
2023/04/16 00:26:51;;;;;;;15.27;10.00;;;;;;;;;;4997051;28;20475;-58
2023/04/16 00:29:16;;;;;;;15.82;9.98;;;;;;;;;;4995582;28;20134;-58
2023/04/16 00:31:41;;;;;;;14.38;9.90;;;;;;;;;;4997812;28;20052;-53
2023/04/16 00:34:06;;;;;;;16.38;10.60;;;;;;;;;;4998530;28;20036;-53
2023/04/16 00:36:32;;;;;;;14.93;10.10;;;;;;;;;;4997488;28;20026;-55
2023/04/16 00:38:57;;;;;;;14.48;9.80;;;;;;;;;;4997437;28;20033;-54
2023/04/16 00:41:22;;;;;;;16.90;10.02;;;;;;;;;;4992543;28;20034;-58
2023/04/16 00:43:48;;;;;;;16.55;10.13;;;;;;;;;;4999536;28;20042;-51
2023/04/16 00:46:14;;;;;;;16.17;10.57;;;;;;;;;;4997103;28;20040;-57
2023/04/16 00:48:42;;;;;;;16.13;10.82;;;;;;;;;;4997810;28;20088;-57
2023/04/16 00:51:07;;;;;;;16.88;9.43;;;;;;;;;;4979349;28;20038;-52
2023/04/16 00:53:33;;;;;;;14.52;9.75;;;;;;;;;;4997596;28;20537;-50
2023/04/16 00:55:59;;;;;;;15.73;10.45;;;;;;;;;;4999466;28;20056;-55
2023/04/16 00:58:24;;;;;;;16.30;10.30;;;;;;;;;;4998598;28;20383;-50
2023/04/16 01:00:50;;;;;;;14.75;10.02;;;;;;;;;;4996767;28;20069;-51
2023/04/16 01:03:15;;;;;;;17.50;10.50;;;;;;;;;;5002259;28;20474;-60
2023/04/16 01:05:41;;;;;;;15.48;9.88;;;;;;;;;;5012640;28;20120;-55
2023/04/16 01:08:13;;;;;;;15.90;9.90;;;;;;;;;;5006076;23;20074;-53
2023/04/16 01:10:38;;;;;;;15.30;9.70;;;;;;;;;;4994500;28;20391;-54
2023/04/16 01:13:04;;;;;;;14.68;9.65;;;;;;;;;;5000705;28;20777;-56
2023/04/16 01:15:29;;;;;;;15.02;10.15;;;;;;;;;;4998199;28;20550;-53
2023/04/16 01:17:55;;;;;;;15.50;9.88;;;;;;;;;;4997372;28;20026;-56
2023/04/16 01:20:20;;;;;;;15.88;10.15;;;;;;;;;;4981857;28;20030;-63
2023/04/16 01:22:45;;;;;;;15.75;10.05;;;;;;;;;;4995376;28;20041;-56
2023/04/16 01:25:14;;;;;;;16.48;10.02;;;;;;;;;;4996745;28;20455;-56
2023/04/16 01:27:40;;;;;;;16.30;10.55;;;;;;;;;;4997399;28;20076;-55
2023/04/16 01:30:05;;;;;;;15.35;10.00;;;;;;;;;;4995621;28;20034;-54
2023/04/16 01:32:42;;;;;;;15.90;10.15;;;;;;;;;;4988385;28;20117;-53
2023/04/16 01:35:07;;;;;;;13.98;9.52;;;;;;;;;;4983484;28;20145;-56
2023/04/16 01:37:32;;;;;;;14.55;9.98;;;;;;;;;;4965246;28;20033;-57
2023/04/16 01:39:58;;;;;;;16.45;10.40;;;;;;;;;;4986578;28;20088;-52
2023/04/16 01:42:23;;;;;;;17.70;10.70;;;;;;;;;;4984166;28;20030;-54
2023/04/16 01:44:49;;;;;;;15.70;10.55;;;;;;;;;;4971963;28;20038;-55
2023/04/16 01:47:14;;;;;;;15.82;10.75;;;;;;;;;;4985582;28;20029;-57
2023/04/16 01:49:41;;;;;;;16.67;10.50;;;;;;;;;;4984453;28;20046;-57
2023/04/16 01:52:07;;;;;;;16.00;10.70;;;;;;;;;;4969410;28;20061;-56
2023/04/16 01:54:33;;;;;;;15.50;10.40;;;;;;;;;;4967542;28;20184;-56
2023/04/16 01:56:58;;;;;;;16.25;10.70;;;;;;;;;;4972547;28;20038;-57
2023/04/16 01:59:23;;;;;;;17.77;11.32;;;;;;;;;;4985286;28;20042;-53
2023/04/16 02:01:49;;;;;;;15.45;10.15;;;;;;;;;;4966180;28;20034;-55
2023/04/16 02:04:15;;;;;;;16.70;10.13;;;;;;;;;;4968881;28;20038;-55
2023/04/16 02:06:40;;;;;;;17.73;11.02;;;;;;;;;;4966391;28;20030;-55
2023/04/16 02:09:06;;;;;;;16.95;10.85;;;;;;;;;;4986870;28;20050;-56
2023/04/16 02:11:31;;;;;;;14.90;9.63;;;;;;;;;;4984193;28;20145;-51
2023/04/16 02:13:56;;;;;;;16.02;10.60;;;;;;;;;;4968374;28;20080;-57
2023/04/16 02:16:22;;;;;;;15.98;10.00;;;;;;;;;;4983273;28;20023;-55
2023/04/16 02:18:50;;;;;;;15.75;10.48;;;;;;;;;;4972989;28;20070;-53
2023/04/16 02:21:19;;;;;;;15.70;10.25;;;;;;;;;;4986851;28;20120;-54
2023/04/16 02:23:46;;;;;;;16.10;9.17;;;;;;;;;;4973865;28;20030;-53
2023/04/16 02:26:12;;;;;;;;;;;;;;;;;;4952054;28;20038;-53
2023/04/16 02:28:37;;;;;;;13.00;8.57;;;;;;;;;;4971952;28;19917;-55
2023/04/16 02:31:03;;;;;;;16.67;8.90;;;;;;;;;;4982571;28;20034;-53
2023/04/16 02:33:35;;;;;;;14.13;8.45;;;;;;;;;;4984760;28;20030;-53
2023/04/16 02:36:02;;;;;;;15.88;9.43;;;;;;;;;;4967855;28;20038;-55
2023/04/16 02:38:27;;;;;;;14.73;8.52;;;;;;;;;;4968888;28;20042;-57
2023/04/16 02:40:52;;;;;;;14.18;9.52;;;;;;;;;;4967303;28;20112;-55
2023/04/16 02:43:18;;;;;;;14.35;8.68;;;;;;;;;;4987303;28;20038;-56
2023/04/16 02:45:43;;;;;;;12.85;8.35;;;;;;;;;;4968189;28;20042;-56
2023/04/16 02:48:09;;;;;;;14.43;9.30;;;;;;;;;;4987218;28;20400;-51
2023/04/16 02:50:34;;;;;;;15.00;9.13;;;;;;;;;;4985375;28;20069;-53
2023/04/16 02:52:59;;;;;;;15.90;8.88;;;;;;;;;;4970718;28;20116;-55
2023/04/16 02:55:25;;;;;;;15.32;9.13;;;;;;;;;;4986127;28;20030;-55
2023/04/16 02:57:51;;;;;;;13.90;8.73;;;;;;;;;;4987015;28;20038;-55
2023/04/16 03:00:17;;;;;;;20.30;9.43;;;;;;;;;;4971000;28;20787;-58
2023/04/16 03:02:42;;;;;;;14.40;8.70;;;;;;;;;;4974556;28;20272;-55
2023/04/16 03:05:08;;;;;;;14.77;9.82;;;;;;;;;;4969456;28;20121;-54
2023/04/16 03:07:34;;;;;;;13.50;9.25;;;;;;;;;;4987969;28;20440;-55
2023/04/16 03:09:59;;;;;;;15.55;9.27;;;;;;;;;;4988053;28;20045;-55
2023/04/16 03:12:24;;;;;;;14.77;9.55;;;;;;;;;;4972863;28;20035;-54
2023/04/16 03:14:51;;;;;;;16.67;9.98;;;;;;;;;;4990369;28;20084;-52
2023/04/16 03:17:16;;;;;;;14.88;9.90;;;;;;;;;;4976714;28;20030;-55
2023/04/16 03:19:42;;;;;;;13.98;9.40;;;;;;;;;;4987209;28;20044;-55
2023/04/16 03:22:07;;;;;;;16.45;9.85;;;;;;;;;;4971260;28;20688;-52
2023/04/16 03:24:32;;;;;;;15.90;10.10;;;;;;;;;;4973325;28;20030;-56
2023/04/16 03:26:58;;;;;;;18.33;10.70;;;;;;;;;;4971674;28;20041;-56
2023/04/16 03:29:25;;;;;;;16.08;9.25;;;;;;;;;;4988656;28;20043;-56
2023/04/16 03:31:51;;;;;;;16.33;9.95;;;;;;;;;;4970583;28;20483;-58
2023/04/16 03:34:16;;;;;;;14.43;9.43;;;;;;;;;;4972204;28;20089;-54
2023/04/16 03:36:41;;;;;;;15.07;10.07;;;;;;;;;;4972762;28;20072;-55
2023/04/16 03:39:07;;;;;;;16.17;9.82;;;;;;;;;;4970993;28;20085;-56
2023/04/16 03:41:32;;;;;;;16.60;9.50;;;;;;;;;;4971624;28;20041;-52
2023/04/16 03:43:58;;;;;;;16.48;9.68;;;;;;;;;;4973814;28;20092;-54
2023/04/16 03:46:23;;;;;;;14.65;9.55;;;;;;;;;;4975958;28;20030;-55
2023/04/16 03:48:49;;;;;;;15.00;10.02;;;;;;;;;;4989796;28;20050;-55
2023/04/16 03:51:14;;;;;;;16.02;9.57;;;;;;;;;;4972940;28;20117;-55
2023/04/16 03:53:40;;;;;;;14.65;9.00;;;;;;;;;;4972200;28;20022;-55
2023/04/16 03:56:05;;;;;;;16.15;9.90;;;;;;;;;;4972927;28;20037;-57
2023/04/16 03:58:30;;;;;;;17.40;9.93;;;;;;;;;;4988109;28;20049;-56
2023/04/16 04:00:56;;;;;;;15.30;9.60;;;;;;;;;;4987824;28;20069;-54
2023/04/16 04:03:21;;;;;;;16.23;9.80;;;;;;;;;;4969859;28;20157;-57
2023/04/16 04:05:48;;;;;;;14.65;9.35;;;;;;;;;;4971140;28;20117;-53
2023/04/16 04:08:18;;;;;;;17.90;10.05;;;;;;;;;;4984432;28;20411;-57
2023/04/16 04:10:44;;;;;;;16.93;10.50;;;;;;;;;;4970132;28;20042;-56
2023/04/16 04:13:11;;;;;;;16.70;10.82;;;;;;;;;;4969767;28;20141;-53
2023/04/16 04:15:36;;;;;;;15.73;10.10;;;;;;;;;;4986533;28;20117;-56
2023/04/16 04:18:02;;;;;;;16.05;9.63;;;;;;;;;;4970047;28;20065;-55
2023/04/16 04:20:27;;;;;;;15.38;9.73;;;;;;;;;;4972930;28;20145;-53
2023/04/16 04:22:52;;;;;;;15.05;9.43;;;;;;;;;;4970118;28;20404;-55
2023/04/16 04:25:21;;;;;;;17.10;10.10;;;;;;;;;;4971243;28;20030;-56
2023/04/16 04:27:46;;;;;;;18.13;10.40;;;;;;;;;;4969879;28;20030;-57
2023/04/16 04:30:11;;;;;;;17.70;10.18;;;;;;;;;;4971342;28;20033;-54
2023/04/16 04:32:38;;;;;;;18.75;10.48;;;;;;;;;;4985220;28;20034;-58
2023/04/16 04:35:03;;;;;;;17.80;10.50;;;;;;;;;;4971338;28;20904;-54
2023/04/16 04:37:28;;;;;;;16.63;10.20;;;;;;;;;;4986648;28;20121;-56
2023/04/16 04:39:54;;;;;;;16.52;9.63;;;;;;;;;;4987937;28;20672;-56
2023/04/16 04:42:20;;;;;;;18.77;10.63;;;;;;;;;;4988371;28;20125;-52
2023/04/16 04:44:46;;;;;;;16.35;10.50;;;;;;;;;;4985083;28;20479;-54
2023/04/16 04:47:11;;;;;;;16.77;10.68;;;;;;;;;;4986267;28;20033;-56
2023/04/16 04:49:37;;;;;;;14.75;9.60;;;;;;;;;;4969392;28;20074;-56
2023/04/16 04:52:02;;;;;;;19.15;10.40;;;;;;;;;;4986298;28;20068;-56
2023/04/16 04:54:29;;;;;;;19.95;11.73;;;;;;;;;;4967026;28;20065;-57
2023/04/16 04:56:55;;;;;;;18.42;11.75;;;;;;;;;;4971486;28;20356;-55
2023/04/16 04:59:20;;;;;;;18.25;10.77;;;;;;;;;;4970671;28;20396;-56
2023/04/16 05:01:46;;;;;;;17.85;10.77;;;;;;;;;;4978661;28;20076;-56
2023/04/16 05:04:11;;;;;;;18.77;10.60;;;;;;;;;;4982938;28;20131;-53
2023/04/16 05:06:36;;;;;;;19.02;11.18;;;;;;;;;;4984627;28;20126;-54
2023/04/16 05:09:02;;;;;;;16.05;10.70;;;;;;;;;;4981623;28;20045;-53
2023/04/16 05:11:28;;;;;;;18.75;10.75;;;;;;;;;;4984393;28;20042;-55
2023/04/16 05:13:53;;;;;;;17.40;10.70;;;;;;;;;;4984327;28;20160;-55
2023/04/16 05:16:19;;;;;;;18.77;11.57;;;;;;;;;;4987828;28;20509;-57
2023/04/16 05:18:44;;;;;;;18.88;11.48;;;;;;;;;;4986707;28;20034;-56
2023/04/16 05:21:09;;;;;;;17.38;10.90;;;;;;;;;;4987576;28;20026;-51
2023/04/16 05:23:35;;;;;;;20.00;11.27;;;;;;;;;;4986559;28;20815;-56
2023/04/16 05:26:00;;;;;;;19.50;11.85;;;;;;;;;;4972620;28;20034;-55
2023/04/16 05:28:25;;;;;;;17.30;10.65;;;;;;;;;;4984221;28;20037;-57
2023/04/16 05:30:50;;;;;;;16.85;11.38;;;;;;;;;;4985619;28;20463;-56
2023/04/16 05:33:16;;;;;;;19.85;10.88;;;;;;;;;;4986586;28;20035;-56
2023/04/16 05:35:41;;;;;;;22.35;11.45;;;;;;;;;;4970795;28;20134;-57
2023/04/16 05:38:07;;;;;;;20.52;11.77;;;;;;;;;;4986451;28;20030;-53
2023/04/16 05:40:32;;;;;;;22.13;12.35;;;;;;;;;;4969772;28;20041;-54
2023/04/16 05:42:57;;;;;;;19.67;11.82;;;;;;;;;;4971893;28;20030;-56
2023/04/16 05:45:23;;;;;;;20.77;12.23;;;;;;;;;;4985976;28;20048;-53
2023/04/16 05:47:48;;;;;;;23.30;13.15;;;;;;;;;;4985895;28;20038;-57
2023/04/16 05:50:13;;;;;;;20.88;12.93;;;;;;;;;;4987004;28;20069;-55
2023/04/16 05:52:39;;;;;;;25.23;13.90;;;;;;;;;;4987006;28;20861;-55
2023/04/16 05:55:04;;;;;;;24.13;12.82;;;;;;;;;;4981991;28;20042;-56
2023/04/16 05:57:30;;;;;;;22.83;13.55;;;;;;;;;;4967432;28;20034;-56
2023/04/16 05:59:55;;;;;;;23.55;12.38;;;;;;;;;;4983406;28;20539;-53
2023/04/16 06:02:20;;;;;;;19.27;12.18;;;;;;;;;;4984215;28;20110;-53
2023/04/16 06:04:46;;;;;;;21.77;12.63;;;;;;;;;;4984632;28;20908;-59
2023/04/16 06:07:11;;;;;;;20.15;12.35;;;;;;;;;;4968894;28;20714;-53
2023/04/16 06:09:36;;;;;;;22.10;11.80;;;;;;;;;;4985210;28;20428;-54
2023/04/16 06:12:02;;;;;;;21.08;12.60;;;;;;;;;;4985191;28;20072;-55
2023/04/16 06:14:27;;;;;;;19.88;12.73;;;;;;;;;;4985652;28;20026;-53
2023/04/16 06:16:52;;;;;;;18.45;11.27;;;;;;;;;;4985511;28;20064;-57
2023/04/16 06:19:17;;;;;;;19.33;12.52;;;;;;;;;;4986883;28;20032;-54
2023/04/16 06:21:43;;;;;;;18.95;11.45;;;;;;;;;;4985858;28;20113;-53
2023/04/16 06:24:08;;;;;;;18.05;11.40;;;;;;;;;;4984575;28;20591;-55
2023/04/16 06:26:33;;;;;;;21.42;12.38;;;;;;;;;;4985974;28;20057;-54
2023/04/16 06:28:59;;;;;;;19.20;12.10;;;;;;;;;;4986136;28;20027;-54
2023/04/16 06:31:24;;;;;;;20.10;12.32;;;;;;;;;;4985940;28;20031;-56
2023/04/16 06:33:49;;;;;;;19.33;12.15;;;;;;;;;;4984135;28;20042;-52
2023/04/16 06:36:15;;;;;;;20.58;12.48;;;;;;;;;;4987931;28;20064;-55
2023/04/16 06:38:41;;;;;;;21.88;12.05;;;;;;;;;;4984855;28;20699;-56
2023/04/16 06:41:06;;;;;;;21.30;12.63;;;;;;;;;;4984793;28;20035;-53
2023/04/16 06:43:32;;;;;;;23.08;13.73;;;;;;;;;;4985562;28;20468;-54
2023/04/16 06:45:58;;;;;;;22.58;14.18;;;;;;;;;;4985045;28;20035;-58
2023/04/16 06:48:23;;;;;;;21.92;13.77;;;;;;;;;;4986126;28;20044;-57
2023/04/16 06:50:48;;;;;;;21.55;13.38;;;;;;;;;;4984872;28;20055;-55
2023/04/16 06:53:14;;;;;;;23.13;13.98;;;;;;;;;;4969335;28;20152;-53
2023/04/16 06:55:39;;;;;;;22.50;14.15;;;;;;;;;;4984797;28;20112;-55
2023/04/16 06:58:04;;;;;;;26.42;15.68;;;;;;;;;;4972724;28;20038;-56
2023/04/16 07:00:30;;;;;;;25.15;14.45;;;;;;;;;;4984233;28;20030;-55
2023/04/16 07:02:55;;;;;;;24.00;15.07;;;;;;;;;;4984493;28;20516;-57
2023/04/16 07:05:20;;;;;;;24.67;14.80;;;;;;;;;;4986422;28;20031;-55
2023/04/16 07:07:46;;;;;;;26.48;15.10;;;;;;;;;;4966905;28;20487;-53
2023/04/16 07:10:11;;;;;;;24.17;15.02;;;;;;;;;;4987350;28;20049;-54
2023/04/16 07:12:36;;;;;;;24.33;15.43;;;;;;;;;;4985037;28;20147;-56
2023/04/16 07:15:01;;;;;;;27.02;15.68;;;;;;;;;;4988275;28;20058;-57
2023/04/16 07:17:27;;;;;;;24.45;15.35;;;;;;;;;;4983827;28;20065;-53
2023/04/16 07:19:52;;;;;;;25.25;15.52;;;;;;;;;;4985862;28;20149;-54
2023/04/16 07:22:18;;;;;;;31.75;18.05;;;;;;;;;;4984248;28;20039;-55
2023/04/16 07:24:43;;;;;;;27.10;15.95;;;;;;;;;;4986300;28;20105;-54
2023/04/16 07:27:08;;;;;;;29.48;16.70;;;;;;;;;;4984521;28;20062;-56
2023/04/16 07:29:33;;;;;;;30.35;17.23;;;;;;;;;;4986099;28;20096;-56
2023/04/16 07:31:59;;;;;;;30.08;16.63;;;;;;;;;;4986188;28;20096;-52
2023/04/16 07:34:24;;;;;;;26.75;15.88;;;;;;;;;;4984877;28;20032;-54
2023/04/16 07:36:50;;;;;;;26.35;16.70;;;;;;;;;;4985220;28;20061;-57
2023/04/16 07:39:15;;;;;;;26.67;15.73;;;;;;;;;;4968559;28;20054;-53
2023/04/16 07:41:40;;;;;;;28.48;16.35;;;;;;;;;;4985996;28;20122;-54
2023/04/16 07:44:06;;;;;;;26.58;16.95;;;;;;;;;;4985931;28;20703;-57
2023/04/16 07:46:32;;;;;;;31.10;16.80;;;;;;;;;;4988710;28;20145;-55
2023/04/16 07:48:57;;;;;;;27.98;16.27;;;;;;;;;;4989356;28;20043;-56
2023/04/16 07:51:22;;;;;;;27.08;16.02;;;;;;;;;;4987912;28;20035;-55
2023/04/16 07:53:48;;;;;;;25.25;16.00;;;;;;;;;;4989465;28;20035;-56
2023/04/16 07:56:13;;;;;;;28.05;16.50;;;;;;;;;;4988475;28;20031;-55
2023/04/16 07:58:38;;;;;;;25.70;16.13;;;;;;;;;;4969590;28;20445;-56
2023/04/16 08:01:04;;;;;;;31.83;17.40;;;;;;;;;;4987156;28;20061;-50
2023/04/16 08:03:29;;;;;;;31.58;17.90;;;;;;;;;;4972527;28;20041;-56
2023/04/16 08:05:54;;;;;;;29.27;16.38;;;;;;;;;;4989865;28;20108;-55
2023/04/16 08:08:20;;;;;;;27.05;16.92;;;;;;;;;;4987883;28;20590;-56
2023/04/16 08:10:46;;;;;;;26.45;16.13;;;;;;;;;;4988687;28;20508;-53
2023/04/16 08:13:11;;;;;;;26.27;16.70;;;;;;;;;;4984523;28;20034;-54
2023/04/16 08:15:36;;;;;;;25.00;15.70;;;;;;;;;;4988154;28;20771;-54
2023/04/16 08:18:01;;;;;;;28.67;15.98;;;;;;;;;;4988445;28;20026;-55
2023/04/16 08:20:27;;;;;;;24.90;16.20;;;;;;;;;;4970231;28;20038;-51
2023/04/16 08:22:52;;;;;;;27.73;15.07;;;;;;;;;;4984529;28;20559;-53
2023/04/16 08:25:19;;;;;;;26.10;15.43;;;;;;;;;;4990379;28;20022;-52
2023/04/16 08:27:44;;;;;;;24.48;14.95;;;;;;;;;;4988054;28;20106;-54
2023/04/16 08:30:09;;;;;;;23.85;14.10;;;;;;;;;;4973831;28;20064;-52
2023/04/16 08:32:35;;;;;;;25.80;15.73;;;;;;;;;;4987688;28;20022;-51
2023/04/16 08:35:00;;;;;;;26.85;15.48;;;;;;;;;;4971736;28;20042;-53
2023/04/16 08:37:25;;;;;;;24.88;14.38;;;;;;;;;;4986863;28;20089;-56
2023/04/16 08:39:50;;;;;;;25.55;15.25;;;;;;;;;;4987011;28;20034;-53
2023/04/16 08:42:33;;;;;;;21.52;13.65;;;;;;;;;;4987379;28;20040;-55
2023/04/16 08:45:07;;;;;;;20.08;13.70;;;;;;;;;;4989836;28;20061;-54
2023/04/16 08:47:33;;;;;;;20.45;13.40;;;;;;;;;;4986058;28;20034;-55
2023/04/16 08:49:59;;;;;;;20.13;13.10;;;;;;;;;;4988824;28;20051;-54
2023/04/16 08:52:29;;;;;;;21.10;13.07;;;;;;;;;;4986113;28;20046;-56
2023/04/16 08:55:02;;;;;;;18.25;12.00;;;;;;;;;;4986986;28;20034;-54
2023/04/16 08:57:32;;;;;;;17.88;11.75;;;;;;;;;;4987748;28;20868;-53
2023/04/16 08:59:58;;;;;;;20.75;12.40;;;;;;;;;;4986155;28;20042;-53
2023/04/16 09:02:24;;;;;;;18.40;11.50;;;;;;;;;;4987036;28;20037;-55
2023/04/16 09:04:50;;;;;;;19.13;11.50;;;;;;;;;;4987706;28;20064;-55
2023/04/16 09:07:17;;;;;;;18.58;11.98;;;;;;;;;;4988650;28;20034;-55
2023/04/16 09:09:42;;;;;;;19.50;12.30;;;;;;;;;;4969408;28;20045;-58
2023/04/16 09:12:09;;;;;;;21.27;11.88;;;;;;;;;;4975620;28;20030;-55
2023/04/16 09:14:34;;;;;;;17.30;11.75;;;;;;;;;;4986512;28;20034;-57
2023/04/16 09:17:01;;;;;;;16.77;11.18;;;;;;;;;;4970605;28;20865;-53
2023/04/16 09:19:26;;;;;;;18.90;11.45;;;;;;;;;;4986252;28;20400;-53
2023/04/16 09:21:52;;;;;;;19.50;11.48;;;;;;;;;;4986989;28;20030;-55
2023/04/16 09:24:17;;;;;;;19.73;11.40;;;;;;;;;;4984824;28;20082;-57
2023/04/16 09:26:43;;;;;;;17.33;10.93;;;;;;;;;;4989141;28;20022;-55
2023/04/16 09:29:08;;;;;;;18.25;11.75;;;;;;;;;;4968477;28;20056;-55
2023/04/16 09:31:33;;;;;;;18.65;11.75;;;;;;;;;;4985723;28;20034;-54
2023/04/16 09:34:02;;;;;;;18.27;11.57;;;;;;;;;;4969225;28;20399;-52
2023/04/16 09:36:27;;;;;;;17.85;11.40;;;;;;;;;;4986448;28;20034;-52
2023/04/16 09:38:53;;;;;;;19.70;12.38;;;;;;;;;;4985846;28;20413;-55
2023/04/16 09:41:23;;;;;;;19.30;12.68;;;;;;;;;;4985328;28;20129;-55
2023/04/16 09:44:01;;;;;;;17.95;11.18;;;;;;;;;;4986613;28;20177;-52
2023/04/16 09:46:29;;;;;;;17.95;11.77;;;;;;;;;;4985581;28;20041;-53
2023/04/16 09:48:55;;;;;;;18.00;11.25;;;;;;;;;;4987867;28;20034;-56
2023/04/16 09:51:20;;;;;;;18.88;11.63;;;;;;;;;;4985227;28;20058;-54
2023/04/16 09:53:45;;;;;;;20.20;11.65;;;;;;;;;;4982920;28;20083;-52
2023/04/16 09:56:11;;;;;;;19.92;11.50;;;;;;;;;;4984277;28;20030;-54
2023/04/16 09:58:37;;;;;;;20.23;11.40;;;;;;;;;;4984994;28;20026;-54
2023/04/16 10:01:07;;;;;;;20.23;10.88;;;;;;;;;;4983978;28;20124;-56
2023/04/16 10:03:33;;;;;;;18.40;11.65;;;;;;;;;;4976981;28;20041;-55
2023/04/16 10:05:59;;;;;;;19.00;11.25;;;;;;;;;;4968645;28;20030;-58
2023/04/16 10:08:24;;;;;;;22.63;12.60;;;;;;;;;;4978249;28;20077;-55
2023/04/16 10:10:50;;;;;;;17.02;11.57;;;;;;;;;;4981901;28;20125;-52
2023/04/16 10:13:17;;;;;;;17.95;11.02;;;;;;;;;;4976983;28;20553;-55
2023/04/16 10:15:43;;;;;;;16.70;11.05;;;;;;;;;;4961680;28;20038;-52
2023/04/16 10:18:09;;;;;;;16.50;11.40;;;;;;;;;;4983503;28;20089;-52
2023/04/16 10:20:35;;;;;;;17.27;10.88;;;;;;;;;;4978703;28;20030;-53
2023/04/16 10:23:00;;;;;;;18.73;10.45;;;;;;;;;;4984711;28;20041;-54
2023/04/16 10:25:26;;;;;;;18.98;11.50;;;;;;;;;;4976892;28;20026;-55
2023/04/16 10:27:52;;;;;;;19.50;11.25;;;;;;;;;;4972510;28;20036;-58
2023/04/16 10:30:18;;;;;;;20.08;11.65;;;;;;;;;;4984385;28;20045;-56
2023/04/16 10:32:44;;;;;;;19.98;12.73;;;;;;;;;;4979081;28;20092;-55
2023/04/16 10:35:13;;;;;;;19.13;11.77;;;;;;;;;;4981255;28;20030;-53
2023/04/16 10:37:39;;;;;;;18.20;11.65;;;;;;;;;;4978773;28;20557;-56
2023/04/16 10:40:20;;;;;;;18.10;11.15;;;;;;;;;;4976541;28;20030;-56
2023/04/16 10:42:55;;;;;;;19.58;12.20;;;;;;;;;;4982973;28;20030;-58
2023/04/16 10:45:25;;;;;;;19.00;11.57;;;;;;;;;;4977589;28;20034;-56
2023/04/16 10:47:54;;;;;;;25.63;12.65;;;;;;;;;;4977769;28;20050;-56
2023/04/16 10:50:19;;;;;;;18.50;11.63;;;;;;;;;;4983399;28;20030;-54
2023/04/16 10:52:44;;;;;;;19.42;12.15;;;;;;;;;;4981371;28;20085;-56
2023/04/16 10:55:15;;;;;;;21.27;12.30;;;;;;;;;;4984049;28;20037;-56
2023/04/16 10:57:40;;;;;;;22.38;13.07;;;;;;;;;;4978731;28;20093;-56
2023/04/16 11:00:26;;;;;;;21.48;13.43;;;;;;;;;;4977729;28;20061;-55
2023/04/16 11:02:53;;;;;;;21.52;13.20;;;;;;;;;;4981995;28;20062;-52
2023/04/16 11:05:21;;;;;;;22.40;13.48;;;;;;;;;;4974718;28;20022;-56
2023/04/16 11:07:47;;;;;;;21.25;12.13;;;;;;;;;;4982876;28;20094;-55
2023/04/16 11:10:12;;;;;;;25.35;13.13;;;;;;;;;;4977430;28;20057;-58
2023/04/16 11:12:39;;;;;;;22.17;12.93;;;;;;;;;;4980561;28;20149;-55
2023/04/16 11:15:11;;;;;;;21.98;12.88;;;;;;;;;;4980540;28;20069;-53
2023/04/16 11:17:40;;;;;;;22.70;11.88;;;;;;;;;;4976598;28;20054;-55
2023/04/16 11:20:06;;;;;;;22.73;13.35;;;;;;;;;;4980124;28;20503;-55
2023/04/16 11:22:34;;;;;;;23.88;12.35;;;;;;;;;;4984992;28;20752;-52
2023/04/16 11:24:59;;;;;;;;;;;;;;;;;;4981866;28;20045;-55
2023/04/16 11:27:25;;;;;;;21.67;12.40;;;;;;;;;;4986742;28;19913;-53
2023/04/16 11:29:57;;;;;;;21.63;11.85;;;;;;;;;;4963772;28;20822;-52
2023/04/16 11:32:23;;;;;;;23.13;13.57;;;;;;;;;;4979785;28;20034;-55
2023/04/16 11:34:48;;;;;;;20.42;12.02;;;;;;;;;;4985814;28;20034;-53
2023/04/16 11:37:14;;;;;;;21.80;12.40;;;;;;;;;;4978894;28;20037;-52
2023/04/16 11:39:49;;;;;;;20.83;12.80;;;;;;;;;;4987188;28;20028;-57
2023/04/16 11:42:25;;;;;;;23.70;12.68;;;;;;;;;;4981101;28;20113;-54
2023/04/16 11:44:52;;;;;;;22.88;11.70;;;;;;;;;;4982640;28;20035;-57
2023/04/16 11:47:17;;;;;;;24.20;13.23;;;;;;;;;;4984555;28;20754;-55
2023/04/16 11:49:43;;;;;;;22.08;12.77;;;;;;;;;;4981282;28;20042;-56
2023/04/16 11:52:08;;;;;;;21.20;12.07;;;;;;;;;;4986227;28;20030;-57
2023/04/16 11:54:35;;;;;;;20.38;12.10;;;;;;;;;;4979231;28;20095;-57
2023/04/16 11:57:03;;;;;;;19.95;11.43;;;;;;;;;;4979573;28;20050;-54
2023/04/16 11:59:28;;;;;;;17.98;11.23;;;;;;;;;;4985116;28;20034;-54
2023/04/16 12:01:56;;;;;;;21.63;11.93;;;;;;;;;;4965377;28;20041;-56
2023/04/16 12:04:25;;;;;;;20.92;11.73;;;;;;;;;;4985958;28;20073;-58
2023/04/16 12:07:09;;;;;;;19.75;11.82;;;;;;;;;;4982960;28;20105;-60
2023/04/16 12:09:35;;;;;;;14.82;9.60;;;;;;;;;;4977585;28;20664;-58
2023/04/16 12:12:01;;;;;;;16.13;10.05;;;;;;;;;;4986460;28;20106;-52
2023/04/16 12:14:27;;;;;;;17.63;10.25;;;;;;;;;;4981871;28;20030;-52
2023/04/16 12:16:52;;;;;;;18.90;9.77;;;;;;;;;;4981400;28;20023;-55
2023/04/16 12:19:18;;;;;;;17.17;10.30;;;;;;;;;;4985078;28;20034;-57
2023/04/16 12:21:44;;;;;;;15.45;8.85;;;;;;;;;;4979334;28;20038;-54
2023/04/16 12:24:12;;;;;;;15.70;9.68;;;;;;;;;;4984527;28;20034;-53
2023/04/16 12:26:47;;;;;;;17.52;9.75;;;;;;;;;;4981602;28;20022;-53
2023/04/16 12:29:20;;;;;;;15.10;8.93;;;;;;;;;;4979153;28;20022;-55
2023/04/16 12:31:46;;;;;;;15.45;8.80;;;;;;;;;;4985214;28;20054;-55
2023/04/16 12:34:12;;;;;;;15.57;8.73;;;;;;;;;;4979106;28;20551;-54
2023/04/16 12:36:38;;;;;;;13.97;8.57;;;;;;;;;;4985134;28;20427;-58
2023/04/16 12:39:04;;;;;;;14.85;8.60;;;;;;;;;;4981193;28;20057;-55
2023/04/16 12:41:29;;;;;;;14.57;8.55;;;;;;;;;;4976876;28;20026;-55
2023/04/16 12:44:15;;;;;;;14.48;8.40;;;;;;;;;;4985224;28;20092;-57
2023/04/16 12:46:41;;;;;;;12.68;7.63;;;;;;;;;;4980021;28;20034;-55
2023/04/16 12:49:07;;;;;;;14.50;7.20;;;;;;;;;;4957674;28;20392;-53
2023/04/16 12:51:34;;;;;;;12.85;7.43;;;;;;;;;;4986690;28;20045;-54
2023/04/16 12:54:00;;;;;;;13.10;7.20;;;;;;;;;;4966803;28;20065;-53
2023/04/16 12:56:26;;;;;;;12.18;6.95;;;;;;;;;;4986296;28;20087;-53
2023/04/16 12:58:51;;;;;;;12.02;6.63;;;;;;;;;;4979858;28;20033;-56
2023/04/16 13:01:17;;;;;;;11.75;7.40;;;;;;;;;;4979733;28;20117;-55
2023/04/16 13:03:42;;;;;;;12.80;7.05;;;;;;;;;;4985816;28;20057;-56
2023/04/16 13:06:08;;;;;;;11.07;6.65;;;;;;;;;;4963484;28;20149;-55
2023/04/16 13:08:33;;;;;;;10.20;6.60;;;;;;;;;;4985990;28;20065;-54
2023/04/16 13:10:58;;;;;;;12.40;6.70;;;;;;;;;;4980324;28;20092;-58
2023/04/16 13:13:24;;;;;;;9.70;6.28;;;;;;;;;;4980135;28;20059;-55
2023/04/16 13:15:49;;;;;;;9.55;6.15;;;;;;;;;;4969567;28;20132;-54
2023/04/16 13:18:14;;;;;;;12.38;6.60;;;;;;;;;;4958167;28;20681;-52
2023/04/16 13:20:40;;;;;;;9.52;6.22;;;;;;;;;;4983962;28;20118;-55
2023/04/16 13:23:05;;;;;;;9.70;6.30;;;;;;;;;;4958749;28;21596;-55
2023/04/16 13:25:31;;;;;;;11.55;6.38;;;;;;;;;;4978904;28;20049;-54
2023/04/16 13:27:56;;;;;;;10.18;6.78;;;;;;;;;;4985078;28;20169;-57
2023/04/16 13:30:21;;;;;;;10.90;6.50;;;;;;;;;;4980484;28;20042;-55
2023/04/16 13:32:47;;;;;;;10.63;6.82;;;;;;;;;;4984847;28;20041;-55
2023/04/16 13:35:12;;;;;;;11.70;6.47;;;;;;;;;;4979785;28;20030;-53
2023/04/16 13:37:38;;;;;;;10.43;6.38;;;;;;;;;;4979229;28;20034;-56
2023/04/16 13:40:03;;;;;;;9.75;6.18;;;;;;;;;;4984464;28;20038;-57
2023/04/16 13:42:29;;;;;;;12.05;7.20;;;;;;;;;;4979552;28;20030;-56
2023/04/16 13:44:54;;;;;;;11.60;6.97;;;;;;;;;;4986935;28;20028;-55
2023/04/16 13:47:19;;;;;;;10.10;6.95;;;;;;;;;;4980025;28;20692;-56
2023/04/16 13:49:46;;;;;;;9.85;6.47;;;;;;;;;;4977999;28;20746;-57
2023/04/16 13:52:11;;;;;;;10.00;6.93;;;;;;;;;;4969942;28;20030;-56
2023/04/16 13:54:37;;;;;;;13.02;7.75;;;;;;;;;;4982247;28;20030;-54
2023/04/16 13:57:02;;;;;;;13.60;7.72;;;;;;;;;;4985309;28;20034;-55
2023/04/16 13:59:27;;;;;;;12.98;7.72;;;;;;;;;;4962372;28;20058;-53
2023/04/16 14:01:53;;;;;;;11.57;7.60;;;;;;;;;;4980082;28;20042;-56
2023/04/16 14:04:18;;;;;;;13.27;7.82;;;;;;;;;;4967333;28;20112;-56
2023/04/16 14:06:43;;;;;;;11.88;7.97;;;;;;;;;;4980892;28;20061;-52
2023/04/16 14:09:09;;;;;;;11.38;7.43;;;;;;;;;;4967975;28;20026;-54
2023/04/16 14:11:36;;;;;;;13.93;7.95;;;;;;;;;;4961123;28;20166;-53
2023/04/16 14:14:01;;;;;;;10.88;7.25;;;;;;;;;;4978585;28;20117;-55